createdAt,value
2023-04-04T00:00:21.916Z,0.00
2023-04-04T00:01:21.857Z,0.00
2023-04-04T00:02:21.838Z,0.00
2023-04-04T00:03:22.013Z,0.00
2023-04-04T00:04:21.814Z,0.00
2023-04-04T00:05:21.806Z,0.00
2023-04-04T00:06:21.777Z,0.00
2023-04-04T00:07:21.762Z,0.00
2023-04-04T00:08:21.759Z,0.00
2023-04-04T00:09:21.739Z,0.00
2023-04-04T00:10:21.752Z,0.00
2023-04-04T00:11:21.724Z,0.00
2023-04-04T00:12:23.638Z,0.00
2023-04-04T00:13:21.697Z,0.00
2023-04-04T00:14:21.692Z,0.00
2023-04-04T00:15:21.700Z,0.00
2023-04-04T00:16:21.769Z,0.00
2023-04-04T00:17:21.653Z,0.00
2023-04-04T00:18:21.655Z,0.00
2023-04-04T00:19:21.647Z,0.00
2023-04-04T00:20:21.668Z,0.00
2023-04-04T00:21:21.621Z,0.00
2023-04-04T00:22:21.610Z,0.00
2023-04-04T00:23:21.587Z,0.00
2023-04-04T00:24:21.586Z,0.00
2023-04-04T00:25:21.591Z,0.00
2023-04-04T00:26:21.553Z,0.00
2023-04-04T00:27:21.543Z,0.00
2023-04-04T00:28:21.565Z,0.00
2023-04-04T00:29:21.523Z,0.00
2023-04-04T00:30:21.549Z,0.00
2023-04-04T00:31:21.558Z,0.00
2023-04-04T00:32:21.604Z,0.00
2023-04-04T00:33:21.505Z,0.00
2023-04-04T00:34:21.481Z,0.00
2023-04-04T00:35:21.486Z,0.00
2023-04-04T00:36:21.452Z,0.00
2023-04-04T00:37:21.595Z,0.00
2023-04-04T00:38:21.420Z,0.00
2023-04-04T00:39:21.414Z,0.00
2023-04-04T00:40:21.426Z,0.00
2023-04-04T00:41:21.414Z,0.00
2023-04-04T00:42:21.391Z,0.00
2023-04-04T00:43:21.370Z,0.00
2023-04-04T00:44:21.379Z,0.00
2023-04-04T00:45:21.465Z,0.00
2023-04-04T00:46:21.341Z,0.00
2023-04-04T00:47:21.327Z,0.00
2023-04-04T00:48:21.328Z,0.00
2023-04-04T00:49:21.298Z,0.00
2023-04-04T00:50:21.352Z,0.00
2023-04-04T00:51:21.300Z,0.00
2023-04-04T00:52:21.335Z,0.00
2023-04-04T00:53:21.266Z,0.00
2023-04-04T00:54:21.262Z,0.00
2023-04-04T00:55:21.261Z,0.00
2023-04-04T00:56:21.232Z,0.00
2023-04-04T00:57:21.216Z,0.00
2023-04-04T00:58:21.203Z,0.00
2023-04-04T00:59:21.217Z,0.00
2023-04-04T01:00:21.386Z,0.00
2023-04-04T01:01:21.211Z,0.00
2023-04-04T01:02:21.170Z,0.00
2023-04-04T01:03:21.154Z,0.00
2023-04-04T01:04:21.202Z,0.00
2023-04-04T01:05:21.163Z,0.00
2023-04-04T01:06:21.123Z,0.00
2023-04-04T01:07:21.100Z,0.00
2023-04-04T01:08:21.091Z,0.00
2023-04-04T01:09:21.080Z,0.00
2023-04-04T01:10:21.124Z,0.00
2023-04-04T01:11:21.069Z,0.00
2023-04-04T01:12:21.052Z,0.00
2023-04-04T01:13:21.043Z,0.00
2023-04-04T01:14:21.032Z,0.00
2023-04-04T01:15:21.037Z,0.00
2023-04-04T01:16:21.104Z,0.00
2023-04-04T01:17:20.988Z,0.00
2023-04-04T01:18:20.991Z,0.00
2023-04-04T01:19:20.970Z,0.00
2023-04-04T01:20:20.981Z,0.00
2023-04-04T01:21:20.946Z,0.00
2023-04-04T01:22:20.951Z,0.00
2023-04-04T01:23:20.935Z,0.00
2023-04-04T01:24:20.910Z,0.00
2023-04-04T01:25:20.931Z,0.00
2023-04-04T01:26:20.894Z,0.00
2023-04-04T01:27:20.887Z,0.00
2023-04-04T01:28:20.869Z,0.00
2023-04-04T01:29:20.859Z,0.00
2023-04-04T01:30:20.864Z,0.00
2023-04-04T01:31:20.914Z,0.00
2023-04-04T01:32:20.842Z,0.00
2023-04-04T01:33:20.819Z,0.00
2023-04-04T01:34:20.808Z,0.00
2023-04-04T01:35:20.813Z,0.00
2023-04-04T01:36:20.800Z,0.00
2023-04-04T01:37:20.785Z,0.00
2023-04-04T01:38:20.763Z,0.00
2023-04-04T01:39:20.763Z,0.00
2023-04-04T01:40:20.753Z,0.00
2023-04-04T01:41:20.730Z,0.00
2023-04-04T01:42:20.724Z,0.00
2023-04-04T01:43:20.733Z,0.00
2023-04-04T01:44:20.702Z,0.00
2023-04-04T01:45:20.706Z,0.00
2023-04-04T01:46:20.746Z,0.00
2023-04-04T01:47:20.664Z,0.00
2023-04-04T01:48:20.711Z,0.00
2023-04-04T01:49:20.649Z,0.00
2023-04-04T01:50:20.651Z,0.00
2023-04-04T01:51:20.628Z,0.00
2023-04-04T01:52:20.613Z,0.00
2023-04-04T01:53:20.607Z,0.00
2023-04-04T01:54:20.578Z,0.00
2023-04-04T01:55:20.609Z,0.00
2023-04-04T01:56:20.572Z,0.00
2023-04-04T01:57:20.551Z,0.00
2023-04-04T01:58:20.539Z,0.00
2023-04-04T01:59:20.563Z,0.00
2023-04-04T02:00:20.542Z,0.00
2023-04-04T02:01:20.530Z,0.00
2023-04-04T02:02:20.515Z,0.00
2023-04-04T02:03:20.497Z,0.00
2023-04-04T02:04:20.567Z,0.00
2023-04-04T02:05:20.491Z,0.00
2023-04-04T02:06:20.456Z,0.00
2023-04-04T02:07:20.439Z,0.00
2023-04-04T02:08:20.433Z,0.00
2023-04-04T02:09:20.422Z,0.00
2023-04-04T02:10:20.416Z,0.00
2023-04-04T02:11:20.414Z,0.00
2023-04-04T02:12:20.395Z,0.00
2023-04-04T02:13:20.376Z,0.00
2023-04-04T02:14:20.364Z,0.00
2023-04-04T02:15:20.349Z,0.00
2023-04-04T02:16:20.461Z,0.00
2023-04-04T02:17:20.377Z,0.00
2023-04-04T02:18:20.326Z,0.00
2023-04-04T02:19:20.315Z,0.00
2023-04-04T02:20:20.329Z,0.00
2023-04-04T02:21:20.313Z,0.00
2023-04-04T02:22:20.272Z,0.00
2023-04-04T02:23:20.266Z,0.00
2023-04-04T02:24:20.259Z,0.00
2023-04-04T02:25:20.244Z,0.00
2023-04-04T02:26:20.242Z,0.00
2023-04-04T02:27:20.222Z,0.00
2023-04-04T02:28:20.207Z,0.00
2023-04-04T02:29:20.198Z,0.00
2023-04-04T02:30:20.192Z,0.00
2023-04-04T02:31:20.216Z,0.00
2023-04-04T02:32:20.161Z,0.00
2023-04-04T02:33:20.155Z,0.00
2023-04-04T02:34:20.161Z,0.00
2023-04-04T02:35:20.135Z,0.00
2023-04-04T02:36:20.284Z,0.00
2023-04-04T02:37:20.110Z,0.00
2023-04-04T02:38:20.100Z,0.00
2023-04-04T02:39:20.086Z,0.00
2023-04-04T02:40:20.068Z,0.00
2023-04-04T02:41:20.084Z,0.00
2023-04-04T02:42:20.056Z,0.00
2023-04-04T02:43:20.045Z,0.00
2023-04-04T02:44:20.033Z,0.00
2023-04-04T02:45:20.029Z,0.00
2023-04-04T02:46:21.986Z,0.00
2023-04-04T02:47:20.006Z,0.00
2023-04-04T02:48:19.998Z,0.00
2023-04-04T02:49:19.993Z,0.00
2023-04-04T02:50:19.991Z,0.00
2023-04-04T02:51:19.977Z,0.00
2023-04-04T02:52:19.971Z,0.00
2023-04-04T02:53:19.942Z,0.00
2023-04-04T02:54:19.921Z,0.00
2023-04-04T02:55:19.909Z,0.00
2023-04-04T02:56:19.919Z,0.00
2023-04-04T02:57:19.895Z,0.00
2023-04-04T02:58:19.886Z,0.00
2023-04-04T02:59:19.929Z,0.00
2023-04-04T03:00:19.854Z,0.00
2023-04-04T03:01:19.894Z,0.00
2023-04-04T03:02:19.966Z,0.00
2023-04-04T03:03:20.177Z,0.00
2023-04-04T03:04:19.826Z,0.00
2023-04-04T03:05:19.831Z,0.00
2023-04-04T03:06:19.831Z,0.00
2023-04-04T03:07:19.781Z,0.00
2023-04-04T03:08:19.792Z,0.00
2023-04-04T03:09:19.772Z,0.00
2023-04-04T03:10:19.749Z,0.00
2023-04-04T03:11:19.821Z,0.00
2023-04-04T03:12:19.729Z,0.00
2023-04-04T03:13:19.724Z,0.00
2023-04-04T03:14:19.704Z,0.00
2023-04-04T03:15:19.706Z,0.00
2023-04-04T03:16:19.755Z,0.00
2023-04-04T03:17:19.704Z,0.00
2023-04-04T03:18:19.653Z,0.00
2023-04-04T03:19:19.652Z,0.00
2023-04-04T03:20:19.638Z,0.00
2023-04-04T03:21:19.707Z,0.00
2023-04-04T03:22:19.613Z,0.00
2023-04-04T03:23:19.645Z,0.00
2023-04-04T03:24:19.640Z,0.00
2023-04-04T03:25:19.590Z,0.00
2023-04-04T03:26:19.586Z,0.00
2023-04-04T03:27:19.558Z,0.00
2023-04-04T03:28:19.575Z,0.00
2023-04-04T03:29:19.544Z,0.00
2023-04-04T03:30:19.536Z,0.00
2023-04-04T03:31:19.544Z,0.00
2023-04-04T03:32:19.508Z,0.00
2023-04-04T03:33:19.513Z,0.00
2023-04-04T03:34:19.495Z,0.00
2023-04-04T03:35:19.484Z,0.00
2023-04-04T03:36:19.505Z,0.00
2023-04-04T03:37:19.469Z,0.00
2023-04-04T03:38:19.436Z,0.00
2023-04-04T03:39:19.431Z,0.00
2023-04-04T03:40:19.522Z,0.00
2023-04-04T03:41:19.430Z,0.00
2023-04-04T03:42:19.404Z,0.00
2023-04-04T03:43:19.382Z,0.00
2023-04-04T03:44:19.374Z,0.00
2023-04-04T03:45:19.362Z,0.00
2023-04-04T03:46:19.427Z,0.00
2023-04-04T03:47:19.384Z,0.00
2023-04-04T03:48:19.332Z,0.00
2023-04-04T03:49:19.317Z,0.00
2023-04-04T03:50:19.312Z,0.00
2023-04-04T03:51:19.364Z,0.00
2023-04-04T03:52:19.284Z,0.00
2023-04-04T03:53:19.279Z,0.00
2023-04-04T03:54:19.273Z,0.00
2023-04-04T03:55:19.250Z,0.00
2023-04-04T03:56:19.280Z,0.00
2023-04-04T03:57:19.223Z,0.00
2023-04-04T03:58:19.220Z,0.00
2023-04-04T03:59:19.262Z,0.00
2023-04-04T04:00:19.189Z,0.00
2023-04-04T04:01:19.207Z,0.00
2023-04-04T04:02:19.231Z,0.00
2023-04-04T04:03:19.271Z,0.00
2023-04-04T04:04:19.207Z,0.00
2023-04-04T04:05:19.154Z,0.00
2023-04-04T04:06:19.169Z,0.00
2023-04-04T04:07:19.157Z,0.00
2023-04-04T04:08:19.106Z,0.00
2023-04-04T04:09:19.104Z,0.00
2023-04-04T04:10:19.097Z,0.00
2023-04-04T04:11:19.121Z,0.00
2023-04-04T04:12:19.081Z,0.00
2023-04-04T04:13:19.048Z,0.00
2023-04-04T04:14:19.037Z,0.00
2023-04-04T04:15:19.031Z,0.00
2023-04-04T04:16:19.092Z,0.00
2023-04-04T04:17:18.999Z,4.00
2023-04-04T04:19:31.218Z,0.00
2023-04-04T04:21:43.768Z,0.00
2023-04-04T04:22:43.414Z,4.00
2023-04-04T04:24:54.624Z,4.00
2023-04-04T04:25:54.613Z,4.00
2023-04-04T04:26:54.636Z,8.00
2023-04-04T04:27:54.608Z,8.00
2023-04-04T04:28:54.579Z,8.00
2023-04-04T04:29:54.572Z,12.00
2023-04-04T04:30:54.556Z,12.00
2023-04-04T04:31:54.659Z,12.00
2023-04-04T04:32:54.577Z,12.00
2023-04-04T04:33:54.531Z,20.00
2023-04-04T04:34:54.522Z,20.00
2023-04-04T04:35:54.524Z,24.00
2023-04-04T04:36:54.518Z,28.00
2023-04-04T04:37:54.479Z,32.00
2023-04-04T04:38:54.475Z,36.00
2023-04-04T04:39:54.459Z,44.00
2023-04-04T04:40:54.456Z,52.00
2023-04-04T04:41:54.462Z,56.00
2023-04-04T04:42:54.438Z,64.00
2023-04-04T04:43:54.451Z,72.00
2023-04-04T04:44:54.415Z,84.00
2023-04-04T04:45:54.398Z,92.00
2023-04-04T04:46:54.473Z,104.00
2023-04-04T04:47:54.538Z,116.00
2023-04-04T04:48:54.396Z,132.00
2023-04-04T04:49:54.354Z,148.00
2023-04-04T04:50:54.352Z,168.00
2023-04-04T04:51:54.361Z,188.00
2023-04-04T04:52:54.334Z,208.00
2023-04-04T04:53:54.324Z,228.00
2023-04-04T04:54:54.306Z,256.00
2023-04-04T04:55:54.397Z,276.00
2023-04-04T04:58:05.509Z,340.00
2023-04-04T04:59:05.537Z,368.00
2023-04-04T05:00:05.479Z,404.00
2023-04-04T05:01:05.475Z,436.00
2023-04-04T05:02:05.548Z,468.00
2023-04-04T05:03:05.514Z,504.00
2023-04-04T05:05:17.773Z,576.00
2023-04-04T05:06:17.814Z,608.00
2023-04-04T05:07:17.779Z,636.00
2023-04-04T05:08:17.740Z,672.00
2023-04-04T05:09:17.743Z,700.00
2023-04-04T05:10:17.735Z,736.00
2023-04-04T05:11:17.713Z,768.00
2023-04-04T05:12:17.727Z,808.00
2023-04-04T05:14:29.099Z,904.00
2023-04-04T05:15:29.083Z,952.00
2023-04-04T05:16:29.138Z,996.00
2023-04-04T05:17:29.072Z,1036.00
2023-04-04T05:18:29.036Z,1080.00
2023-04-04T05:19:29.085Z,1120.00
2023-04-04T05:20:29.037Z,1172.00
2023-04-04T05:21:29.040Z,1224.00
2023-04-04T05:22:29.050Z,1280.00
2023-04-04T05:23:28.986Z,1336.00
2023-04-04T05:24:28.973Z,1396.00
2023-04-04T05:25:28.973Z,1448.00
2023-04-04T05:26:28.971Z,1492.00
2023-04-04T05:28:41.161Z,1580.00
2023-04-04T05:29:41.171Z,1612.00
2023-04-04T05:30:41.323Z,1644.00
2023-04-04T05:31:41.237Z,1664.00
2023-04-04T05:32:41.162Z,1688.00
2023-04-04T05:33:41.113Z,1708.00
2023-04-04T05:34:41.100Z,1736.00
2023-04-04T05:36:53.690Z,1800.00
2023-04-04T05:37:53.302Z,1836.00
2023-04-04T05:38:53.288Z,1868.00
2023-04-04T05:39:53.277Z,1900.00
2023-04-04T05:40:53.269Z,1924.00
2023-04-04T05:41:53.276Z,1944.00
2023-04-04T05:42:53.244Z,1972.00
2023-04-04T05:45:04.974Z,2048.00
2023-04-04T05:46:04.999Z,2088.00
2023-04-04T05:48:17.179Z,2204.00
2023-04-04T05:49:17.149Z,2268.00
2023-04-04T05:50:17.123Z,2336.00
2023-04-04T05:51:17.106Z,2408.00
2023-04-04T05:52:17.115Z,2476.00
2023-04-04T05:53:17.085Z,2540.00
2023-04-04T05:54:17.084Z,2604.00
2023-04-04T05:55:17.066Z,2676.00
2023-04-04T05:56:17.062Z,2756.00
2023-04-04T05:57:17.072Z,2812.00
2023-04-04T05:58:17.033Z,2860.00
2023-04-04T05:59:17.102Z,2912.00
2023-04-04T06:00:17.153Z,2964.00
2023-04-04T06:01:17.021Z,3024.00
2023-04-04T06:02:17.022Z,3080.00
2023-04-04T06:03:18.419Z,3144.00
2023-04-04T06:05:29.262Z,3272.00
2023-04-04T06:07:40.997Z,3332.00
2023-04-04T06:08:53.155Z,3344.00
2023-04-04T06:09:41.943Z,3340.00
2023-04-04T06:10:41.293Z,3332.00
2023-04-04T06:11:40.967Z,3316.00
2023-04-04T06:13:52.635Z,3284.00
2023-04-04T06:14:52.624Z,3264.00
2023-04-04T06:15:52.664Z,3244.00
2023-04-04T06:16:52.624Z,3220.00
2023-04-04T06:17:52.612Z,3200.00
2023-04-04T06:20:04.292Z,3176.00
2023-04-04T06:21:04.287Z,3172.00
2023-04-04T06:22:04.289Z,3168.00
2023-04-04T06:23:04.312Z,3168.00
2023-04-04T06:24:04.253Z,3168.00
2023-04-04T06:25:04.240Z,3152.00
2023-04-04T06:26:04.234Z,3148.00
2023-04-04T06:27:04.251Z,3140.00
2023-04-04T06:28:04.208Z,3140.00
2023-04-04T06:29:04.195Z,3124.00
2023-04-04T06:30:04.204Z,3112.00
2023-04-04T06:31:04.206Z,3116.00
2023-04-04T06:32:04.193Z,3124.00
2023-04-04T06:33:04.199Z,3136.00
2023-04-04T06:34:04.144Z,3144.00
2023-04-04T06:35:04.132Z,3116.00
2023-04-04T06:36:04.158Z,3092.00
2023-04-04T06:37:04.127Z,3092.00
2023-04-04T06:38:04.106Z,3080.00
2023-04-04T06:39:04.101Z,3036.00
2023-04-04T06:40:04.082Z,2952.00
2023-04-04T06:41:04.070Z,2896.00
2023-04-04T06:42:04.088Z,2848.00
2023-04-04T06:43:04.049Z,2824.00
2023-04-04T06:44:04.032Z,2804.00
2023-04-04T06:45:04.057Z,2768.00
2023-04-04T06:46:04.008Z,2728.00
2023-04-04T06:47:04.099Z,2680.00
2023-04-04T06:48:04.026Z,2624.00
2023-04-04T06:49:03.977Z,2588.00
2023-04-04T06:50:03.978Z,2544.00
2023-04-04T06:51:03.953Z,2460.00
2023-04-04T06:52:03.959Z,2476.00
2023-04-04T06:53:03.938Z,2496.00
2023-04-04T06:54:03.924Z,2536.00
2023-04-04T06:55:03.953Z,2544.00
2023-04-04T06:56:03.906Z,2548.00
2023-04-04T06:57:03.908Z,2552.00
2023-04-04T06:58:03.890Z,2556.00
2023-04-04T06:59:03.900Z,2568.00
2023-04-04T07:00:03.868Z,2588.00
2023-04-04T07:01:03.922Z,2608.00
2023-04-04T07:02:03.908Z,2640.00
2023-04-04T07:03:03.898Z,2632.00
2023-04-04T07:04:03.818Z,2708.00
2023-04-04T07:05:03.802Z,2772.00
2023-04-04T07:06:03.817Z,2800.00
2023-04-04T07:07:03.777Z,2816.00
2023-04-04T07:08:03.793Z,2844.00
2023-04-04T07:09:03.807Z,2880.00
2023-04-04T07:10:03.752Z,2908.00
2023-04-04T07:11:03.765Z,2940.00
2023-04-04T07:12:03.733Z,2972.00
2023-04-04T07:13:03.731Z,3000.00
2023-04-04T07:14:03.716Z,3032.00
2023-04-04T07:15:03.715Z,3072.00
2023-04-04T07:16:03.713Z,3112.00
2023-04-04T07:17:10.690Z,3148.00
2023-04-04T07:18:04.766Z,3192.00
2023-04-04T07:19:03.668Z,3236.00
2023-04-04T07:20:04.853Z,3280.00
2023-04-04T07:21:03.629Z,3328.00
2023-04-04T07:22:03.621Z,3384.00
2023-04-04T07:23:03.626Z,3424.00
2023-04-04T07:24:03.598Z,3428.00
2023-04-04T07:25:03.596Z,3044.00
2023-04-04T07:26:03.575Z,3580.00
2023-04-04T07:27:03.661Z,3632.00
2023-04-04T07:28:12.295Z,3700.00
2023-04-04T07:29:04.579Z,3768.00
2023-04-04T07:30:03.545Z,3812.00
2023-04-04T07:31:03.559Z,3852.00
2023-04-04T07:32:03.568Z,3872.00
2023-04-04T07:33:03.543Z,3904.00
2023-04-04T07:34:03.511Z,3944.00
2023-04-04T07:35:03.501Z,3988.00
2023-04-04T07:36:03.536Z,4040.00
2023-04-04T07:37:03.462Z,4136.00
2023-04-04T07:38:03.473Z,4204.00
2023-04-04T07:39:03.446Z,4196.00
2023-04-04T07:40:03.425Z,4244.00
2023-04-04T07:41:04.371Z,4224.00
2023-04-04T07:42:03.403Z,4348.00
2023-04-04T07:43:03.407Z,4308.00
2023-04-04T07:44:03.373Z,4260.00
2023-04-04T07:45:03.370Z,4288.00
2023-04-04T07:46:03.372Z,3996.00
2023-04-04T07:47:09.655Z,4268.00
2023-04-04T07:48:04.366Z,4336.00
2023-04-04T07:49:03.308Z,3664.00
2023-04-04T07:51:15.046Z,4548.00
2023-04-04T07:52:15.017Z,4588.00
2023-04-04T07:53:15.021Z,4584.00
2023-04-04T07:54:14.989Z,4656.00
2023-04-04T07:55:16.693Z,4740.00
2023-04-04T07:56:14.970Z,4832.00
2023-04-04T07:57:14.978Z,4888.00
2023-04-04T07:58:14.983Z,4936.00
2023-04-04T07:59:14.982Z,4996.00
2023-04-04T08:00:14.947Z,5104.00
2023-04-04T08:01:14.914Z,5308.00
2023-04-04T08:02:14.924Z,5588.00
2023-04-04T08:03:15.094Z,5732.00
2023-04-04T08:04:14.954Z,5908.00
2023-04-04T08:05:14.867Z,5708.00
2023-04-04T08:06:14.865Z,4276.00
2023-04-04T08:07:14.986Z,4484.00
2023-04-04T08:08:14.855Z,6360.00
2023-04-04T08:09:14.820Z,5840.00
2023-04-04T08:10:14.812Z,4732.00
2023-04-04T08:11:14.820Z,4756.00
2023-04-04T08:12:14.787Z,5200.00
2023-04-04T08:13:14.861Z,5708.00
2023-04-04T08:14:14.782Z,5020.00
2023-04-04T08:15:14.807Z,4976.00
2023-04-04T08:16:14.776Z,5016.00
2023-04-04T08:17:14.740Z,5120.00
2023-04-04T08:18:14.737Z,5232.00
2023-04-04T08:19:14.724Z,5296.00
2023-04-04T08:20:14.701Z,5344.00
2023-04-04T08:21:14.701Z,5408.00
2023-04-04T08:22:14.699Z,5496.00
2023-04-04T08:23:14.699Z,5484.00
2023-04-04T08:24:14.661Z,5372.00
2023-04-04T08:25:14.654Z,5276.00
2023-04-04T08:27:26.357Z,5040.00
2023-04-04T08:28:26.369Z,4968.00
2023-04-04T08:29:26.315Z,4892.00
2023-04-04T08:30:26.302Z,4844.00
2023-04-04T08:31:26.336Z,4852.00
2023-04-04T08:32:26.283Z,4756.00
2023-04-04T08:33:34.455Z,4720.00
2023-04-04T08:34:27.266Z,4764.00
2023-04-04T08:35:26.289Z,4776.00
2023-04-04T08:36:26.236Z,4780.00
2023-04-04T08:37:26.229Z,4944.00
2023-04-04T08:38:26.256Z,5120.00
2023-04-04T08:39:26.216Z,6164.00
2023-04-04T08:40:26.196Z,6084.00
2023-04-04T08:41:26.187Z,5884.00
2023-04-04T08:42:26.177Z,6568.00
2023-04-04T08:43:26.181Z,6220.00
2023-04-04T08:44:26.150Z,8600.00
2023-04-04T08:45:26.148Z,8572.00
2023-04-04T08:46:26.280Z,8496.00
2023-04-04T08:47:26.318Z,8460.00
2023-04-04T08:48:26.140Z,8368.00
2023-04-04T08:49:26.101Z,8296.00
2023-04-04T08:50:26.090Z,8456.00
2023-04-04T08:52:38.344Z,8148.00
2023-04-04T08:53:38.325Z,8716.00
2023-04-04T08:54:38.299Z,6764.00
2023-04-04T08:55:38.288Z,5876.00
2023-04-04T08:56:38.270Z,5764.00
2023-04-04T08:57:38.337Z,5804.00
2023-04-04T08:58:38.275Z,7504.00
2023-04-04T08:59:38.299Z,7044.00
2023-04-04T09:00:38.812Z,8884.00
2023-04-04T09:01:38.217Z,5980.00
2023-04-04T09:02:38.332Z,8024.00
2023-04-04T09:03:38.250Z,5684.00
2023-04-04T09:04:38.185Z,5808.00
2023-04-04T09:05:38.187Z,5768.00
2023-04-04T09:06:38.228Z,5896.00
2023-04-04T09:07:39.852Z,6588.00
2023-04-04T09:08:38.146Z,7620.00
2023-04-04T09:09:38.145Z,6612.00
2023-04-04T09:10:38.276Z,7884.00
2023-04-04T09:11:38.103Z,6844.00
2023-04-04T09:12:38.554Z,8316.00
2023-04-04T09:13:40.257Z,6140.00
2023-04-04T09:14:38.075Z,6204.00
2023-04-04T09:15:38.061Z,6268.00
2023-04-04T09:16:38.149Z,6528.00
2023-04-04T09:17:38.052Z,9368.00
2023-04-04T09:18:38.357Z,7428.00
2023-04-04T09:19:38.038Z,7524.00
2023-04-04T09:20:38.276Z,6432.00
2023-04-04T09:22:49.715Z,6564.00
2023-04-04T09:23:49.699Z,6672.00
2023-04-04T09:24:49.700Z,6740.00
2023-04-04T09:26:49.678Z,6756.00
2023-04-04T09:27:49.695Z,6652.00
2023-04-04T09:28:49.693Z,6612.00
2023-04-04T09:29:49.621Z,6652.00
2023-04-04T09:30:49.619Z,6596.00
2023-04-04T09:31:49.729Z,6448.00
2023-04-04T09:32:49.726Z,6320.00
2023-04-04T09:33:49.604Z,6156.00
2023-04-04T09:34:49.569Z,5912.00
2023-04-04T09:35:49.629Z,5668.00
2023-04-04T09:36:49.555Z,5560.00
2023-04-04T09:37:49.548Z,5480.00
2023-04-04T09:38:49.584Z,5500.00
2023-04-04T09:39:49.517Z,5476.00
2023-04-04T09:40:49.562Z,5496.00
2023-04-04T09:41:49.502Z,5464.00
2023-04-04T09:42:49.479Z,5464.00
2023-04-04T09:43:49.492Z,5428.00
2023-04-04T09:44:49.459Z,5492.00
2023-04-04T09:45:49.808Z,5632.00
2023-04-04T09:46:49.437Z,6472.00
2023-04-04T09:47:49.696Z,8260.00
2023-04-04T09:48:49.460Z,9248.00
2023-04-04T09:49:49.401Z,9332.00
2023-04-04T09:50:49.399Z,9292.00
2023-04-04T09:51:49.447Z,7984.00
2023-04-04T09:52:49.368Z,8484.00
2023-04-04T09:53:49.389Z,7596.00
2023-04-04T09:56:00.132Z,8292.00
2023-04-04T09:57:00.102Z,5652.00
2023-04-04T09:58:00.096Z,4764.00
2023-04-04T09:59:03.673Z,7424.00
2023-04-04T10:00:00.097Z,7704.00
2023-04-04T10:01:00.056Z,7624.00
2023-04-04T10:02:00.075Z,6164.00
2023-04-04T10:03:00.091Z,6220.00
2023-04-04T10:04:00.241Z,6788.00
2023-04-04T10:05:06.005Z,6664.00
2023-04-04T10:06:00.999Z,4244.00
2023-04-04T10:07:00.030Z,7364.00
2023-04-04T10:07:59.972Z,5756.00
2023-04-04T10:08:59.972Z,7348.00
2023-04-04T10:09:59.950Z,7140.00
2023-04-04T10:11:09.845Z,7380.00
2023-04-04T10:12:00.948Z,6408.00
2023-04-04T10:14:12.167Z,6440.00
2023-04-04T10:15:12.110Z,5704.00
2023-04-04T10:16:12.520Z,5664.00
2023-04-04T10:17:12.092Z,6940.00
2023-04-04T10:18:12.082Z,4084.00
2023-04-04T10:19:12.082Z,5268.00
2023-04-04T10:20:12.050Z,7336.00
2023-04-04T10:21:15.609Z,6088.00
2023-04-04T10:22:12.031Z,6852.00
2023-04-04T10:23:12.031Z,7136.00
2023-04-04T10:24:12.032Z,7160.00
2023-04-04T10:25:12.004Z,7212.00
2023-04-04T10:26:12.007Z,7188.00
2023-04-04T10:27:12.003Z,7208.00
2023-04-04T10:28:11.962Z,7212.00
2023-04-04T10:29:11.966Z,7176.00
2023-04-04T10:30:11.946Z,7304.00
2023-04-04T10:31:11.963Z,7132.00
2023-04-04T10:32:12.034Z,7056.00
2023-04-04T10:33:11.902Z,6920.00
2023-04-04T10:34:11.910Z,6780.00
2023-04-04T10:35:11.892Z,6708.00
2023-04-04T10:36:11.950Z,6768.00
2023-04-04T10:37:13.150Z,6804.00
2023-04-04T10:38:11.843Z,6792.00
2023-04-04T10:39:12.144Z,6808.00
2023-04-04T10:40:11.837Z,6900.00
2023-04-04T10:41:11.839Z,7000.00
2023-04-04T10:42:11.819Z,7092.00
2023-04-04T10:44:22.880Z,7376.00
2023-04-04T10:45:22.826Z,7392.00
2023-04-04T10:46:22.854Z,7268.00
2023-04-04T10:47:22.871Z,7056.00
2023-04-04T10:48:22.886Z,6844.00
2023-04-04T10:49:22.780Z,6696.00
2023-04-04T10:50:22.779Z,6724.00
2023-04-04T10:51:22.782Z,6724.00
2023-04-04T10:52:22.807Z,6656.00
2023-04-04T10:53:23.871Z,6580.00
2023-04-04T10:54:22.736Z,6568.00
2023-04-04T10:55:22.724Z,6612.00
2023-04-04T10:56:22.701Z,6880.00
2023-04-04T10:57:22.690Z,5900.00
2023-04-04T10:58:22.728Z,5584.00
2023-04-04T10:59:22.692Z,6488.00
2023-04-04T11:00:22.742Z,3532.00
2023-04-04T11:01:22.834Z,3756.00
2023-04-04T11:02:22.665Z,3444.00
2023-04-04T11:03:22.648Z,3420.00
2023-04-04T11:04:22.633Z,3556.00
2023-04-04T11:05:22.606Z,3572.00
2023-04-04T11:06:22.608Z,3312.00
2023-04-04T11:07:22.578Z,4264.00
2023-04-04T11:08:22.591Z,6608.00
2023-04-04T11:09:22.570Z,6468.00
2023-04-04T11:11:34.971Z,6524.00
2023-04-04T11:12:34.813Z,6456.00
2023-04-04T11:13:34.774Z,6400.00
2023-04-04T11:14:34.764Z,6356.00
2023-04-04T11:15:34.758Z,6316.00
2023-04-04T11:16:34.759Z,6308.00
2023-04-04T11:17:34.826Z,6256.00
2023-04-04T11:18:34.752Z,6228.00
2023-04-04T11:19:34.697Z,6236.00
2023-04-04T11:20:34.684Z,6284.00
2023-04-04T11:21:34.675Z,6332.00
2023-04-04T11:22:34.658Z,6448.00
2023-04-04T11:23:34.658Z,6520.00
2023-04-04T11:24:34.647Z,5764.00
2023-04-04T11:25:34.622Z,6676.00
2023-04-04T11:26:34.608Z,6592.00
2023-04-04T11:27:34.648Z,6520.00
2023-04-04T11:28:34.760Z,6512.00
2023-04-04T11:29:34.582Z,6528.00
2023-04-04T11:30:34.654Z,6492.00
2023-04-04T11:31:34.590Z,6448.00
2023-04-04T11:32:34.641Z,6500.00
2023-04-04T11:33:34.603Z,6572.00
2023-04-04T11:34:34.528Z,6612.00
2023-04-04T11:35:36.080Z,6560.00
2023-04-04T11:36:34.507Z,6512.00
2023-04-04T11:37:34.531Z,6508.00
2023-04-04T11:38:34.502Z,6496.00
2023-04-04T11:39:34.471Z,6176.00
2023-04-04T11:40:34.452Z,5988.00
2023-04-04T11:41:34.441Z,6192.00
2023-04-04T11:42:34.456Z,6140.00
2023-04-04T11:43:34.438Z,6340.00
2023-04-04T11:44:34.447Z,6500.00
2023-04-04T11:45:34.389Z,4836.00
2023-04-04T11:46:34.491Z,6544.00
2023-04-04T11:47:34.420Z,6640.00
2023-04-04T11:48:35.253Z,6352.00
2023-04-04T11:49:34.385Z,6628.00
2023-04-04T11:50:34.338Z,5048.00
2023-04-04T11:51:34.332Z,4228.00
2023-04-04T11:52:34.332Z,5660.00
2023-04-04T11:53:34.326Z,3932.00
2023-04-04T11:54:34.295Z,5668.00
2023-04-04T11:55:34.284Z,4024.00
2023-04-04T11:56:34.276Z,6912.00
2023-04-04T11:57:34.259Z,5388.00
2023-04-04T11:58:34.263Z,3744.00
2023-04-04T11:59:34.269Z,4748.00
2023-04-04T12:00:34.266Z,3540.00
2023-04-04T12:01:34.278Z,3660.00
2023-04-04T12:02:34.386Z,5084.00
2023-04-04T12:03:34.293Z,7060.00
2023-04-04T12:04:36.471Z,6608.00
2023-04-04T12:05:34.301Z,6916.00
2023-04-04T12:06:34.170Z,5728.00
2023-04-04T12:07:34.149Z,4428.00
2023-04-04T12:08:34.149Z,4152.00
2023-04-04T12:09:34.143Z,3620.00
2023-04-04T12:10:34.584Z,4052.00
2023-04-04T12:11:34.102Z,6412.00
2023-04-04T12:12:34.095Z,6888.00
2023-04-04T12:13:34.090Z,5072.00
2023-04-04T12:14:34.127Z,7440.00
2023-04-04T12:15:34.059Z,7548.00
2023-04-04T12:16:35.125Z,7608.00
2023-04-04T12:17:34.123Z,7676.00
2023-04-04T12:18:34.081Z,7708.00
2023-04-04T12:19:34.082Z,7808.00
2023-04-04T12:20:34.013Z,7904.00
2023-04-04T12:21:33.999Z,7956.00
2023-04-04T12:22:33.995Z,7972.00
2023-04-04T12:23:34.069Z,7944.00
2023-04-04T12:24:34.003Z,8036.00
2023-04-04T12:25:34.337Z,8044.00
2023-04-04T12:26:33.931Z,8076.00
2023-04-04T12:27:33.934Z,8056.00
2023-04-04T12:28:33.983Z,8080.00
2023-04-04T12:29:33.925Z,8044.00
2023-04-04T12:30:33.912Z,8032.00
2023-04-04T12:31:33.942Z,8016.00
2023-04-04T12:32:33.910Z,7996.00
2023-04-04T12:33:33.894Z,8068.00
2023-04-04T12:34:33.934Z,7300.00
2023-04-04T12:35:33.850Z,6712.00
2023-04-04T12:36:33.830Z,6492.00
2023-04-04T12:37:33.814Z,7744.00
2023-04-04T12:38:33.808Z,8336.00
2023-04-04T12:39:33.803Z,8348.00
2023-04-04T12:40:33.810Z,8116.00
2023-04-04T12:41:33.769Z,8248.00
2023-04-04T12:42:33.809Z,9112.00
2023-04-04T12:43:33.752Z,9856.00
2023-04-04T12:44:33.777Z,10112.00
2023-04-04T12:45:33.949Z,10508.00
2023-04-04T12:46:33.734Z,10644.00
2023-04-04T12:47:33.754Z,10700.00
2023-04-04T12:48:33.709Z,10216.00
2023-04-04T12:49:33.692Z,9608.00
2023-04-04T12:50:33.664Z,9984.00
2023-04-04T12:51:33.703Z,8612.00
2023-04-04T12:52:33.659Z,9216.00
2023-04-04T12:53:33.644Z,10156.00
2023-04-04T12:54:33.642Z,10100.00
2023-04-04T12:55:33.622Z,10352.00
2023-04-04T12:56:33.644Z,11004.00
2023-04-04T12:57:33.583Z,11412.00
2023-04-04T12:58:35.872Z,11412.00